Tiempo atmosférico en la estación meteorológica de Jávea/ Xàbia, Alacant/Alicante (15 m.)



Fecha
DESCASC
Temp. máxima en grados centígrados (hora)
DESCASC
Temp. mínima en grados centígrados (hora)
DESCASC
Temp. media en grados centígrados
DESCASC
Racha de viento máxima en m/sg (hora)
DESCASC
Velocidad máxima media en intervalos de 10 minutos(hora)
DESCASC
Precipitaciones diarias en mm
DESCASC
Precipitaciones de 00:00 a 06:00 en mm
DESCASC
Precipitaciones de 06:00 a 12:00 en mm
DESCASC
Precipitaciones de 12:00 a 18:00 en mm
DESCASC
Precipitaciones de 18:00 a 24:00 en mm
DESCASC
20-09-2018 -- (--) -- (--) -- -- (--) -- (--) -- 0 0 0 --
19-09-2018 29.1 (16:10) 21 (06:10) 25.1 8.89 (12:30) 6.11 (15:40) 0 0 0 0 0
18-09-2018 28.7 (14:20) 21 (08:20) 24.9 9.72 (05:10) 5.28 (05:10) 0 0 0 0 0
17-09-2018 29.9 (15:50) 21.4 (00:00) 25.6 8.33 (09:30) 4.72 (13:00) 0.4 0 0 0 0.4
16-09-2018 28.8 (14:50) 20.9 (00:00) 24.8 10.28 (11:30) 6.11 (12:00) 0 0 0 0 0
15-09-2018 25.4 (16:00) 20.4 (00:00) 22.9 10.56 (18:30) 6.39 (18:30) 24.4 3.4 19.2 1.8 0
14-09-2018 31.1 (15:30) 19 (00:00) 25.1 6.67 (15:30) 3.61 (15:30) -- 0 -- 0 0
13-09-2018 29.8 (14:30) 19.5 (00:00) 24.6 8.89 (11:00) 5.28 (15:10) 0 0 0 0 0
12-09-2018 29.9 (13:30) 23.6 (00:00) 26.8 8.89 (04:30) 5.28 (04:10) 0 0 0 0 0
11-09-2018 28.7 (13:20) 23.4 (00:00) 26.1 8.89 (19:30) 5 (20:10) 0 0 0 0 0
10-09-2018 28.3 (16:10) 21.3 (00:00) 24.8 13.33 (09:30) 7.5 (09:40) 4.4 2.8 1.6 0 0
09-09-2018 29.8 (12:30) 22 (00:00) 25.9 8.33 (06:10) 4.72 (14:30) 8 0 0 0.2 7.8
08-09-2018 28.4 (15:20) 18.7 (00:00) 23.6 5.56 (15:40) 3.61 (15:40) 0 0 0 0 0
07-09-2018 30.4 (15:20) 20.9 (00:00) 25.6 8.33 (13:10) 4.17 (13:20) 0 0 0 0 0
06-09-2018 30.2 (17:00) 22 (00:00) 26.1 11.11 (13:50) 6.67 (13:30) 0 0 0 0 0
05-09-2018 32.5 (16:00) 21.7 (00:00) 27.1 8.33 (15:30) 4.72 (15:30) 0 0 0 0 0
04-09-2018 30.7 (12:10) 20.9 (00:00) 25.8 6.11 (15:40) 3.61 (14:00) 0 0 0 0 0
03-09-2018 30.4 (15:00) 22.3 (00:00) 26.3 9.44 (21:00) 4.72 (21:00) 0 0 0 0 0
02-09-2018 31.6 (16:10) 21.1 (00:00) 26.4 10 (17:10) 5.28 (17:40) 0 0 0 0 0
01-09-2018 31.7 (14:30) 20.6 (00:00) 26.2 8.33 (15:40) 4.44 (15:30) 0 0 0 0 0
31-08-2018 31.5 (16:40) 20.9 (00:00) 26.2 7.78 (15:30) 4.17 (16:10) 0 0 0 0 0
30-08-2018 31.5 (12:20) 22.5 (00:00) 27 7.22 (11:10) 3.89 (11:10) 0 0 0 0 0
29-08-2018 32.6 (15:10) 20 (00:00) 26.3 7.5 (13:00) 4.72 (15:40) 0 0 0 0 0
28-08-2018 31.8 (13:10) 21.5 (00:00) 26.6 8.61 (14:30) 4.72 (16:40) 0 0 0 0 0
27-08-2018 31.6 (12:50) 22.3 (00:00) 26.9 9.17 (14:10) 4.72 (15:40) 0 0 0 0 0
26-08-2018 31.1 (13:40) 21.9 (00:00) 26.5 8.89 (16:50) 5.28 (16:50) 0 0 0 0 0
25-08-2018 32.9 (12:30) 21.4 (00:00) 27.2 6.39 (11:00) 3.89 (11:10) 0 0 0 0 0
24-08-2018 31.9 (17:20) 19.5 (00:00) 25.7 8.33 (18:20) 4.72 (13:30) 0 0 0 0 0
23-08-2018 33.6 (15:20) 18.9 (00:00) 26.2 11.67 (20:10) 5.83 (20:10) 0 0 0 0 0

Gráficas

Temp. máximas Temp. mínimas Temp. medias Precipitaciones Rachas de viento máximas Velocidades máximas media en intervalos de 10 minutos

Datos horarios

Fecha y hora oficial Temperatura (ºC) Velocidad del viento (km/h) Dirección del viento Racha (km/h) Dirección de racha Precipitación (mm) Presión (hPa) Tendencia (hPa) Humedad (%)
2018-09-21 23:00:00 24.2 7 Sudoeste 17 Sudoeste 0 1017.8 1.9 85
2018-09-21 22:00:00 24.4 4 Sudoeste 12 Oeste 0 1017.4 1.8 83
2018-09-21 21:00:00 24.8 6 Sudoeste 14 Sudoeste 0 1016.6 1.6 80
2018-09-21 20:00:00 25.7 4 Oeste 19 Sudoeste 0 1015.9 0.6 73
2018-09-21 19:00:00 28.1 4 Sudoeste 23 Sudoeste 0 1015.6 0.1 64
2018-09-21 18:00:00 29.8 10 Sudoeste 28 Sur 0 1015 -0.9 56
2018-09-21 17:00:00 30.7 12 Sur 29 Sur 0 1015.3 -1 52
2018-09-21 16:00:00 31.5 11 Sudoeste 24 Sudoeste 0 1015.5 -1 47
2018-09-21 15:00:00 31.9 10 Sur 20 Sudoeste 0 1015.9 -0.8 46
2018-09-21 14:00:00 31.3 12 Sudoeste 21 Sudoeste 0 1016.3 -0.3 45
2018-09-21 13:00:00 31.4 8 Sudoeste 19 Sudoeste 0 1016.5 0.1 45
2018-09-21 12:00:00 29.6 9 Sudoeste 18 Sudoeste 0 1016.7 0.5 51
2018-09-21 11:00:00 27.7 9 Sur 17 Sur 0 1016.6 0.7 57
2018-09-21 10:00:00 24.5 5 Oeste 11 Oeste 0 1016.4 0.9 65
2018-09-21 09:00:00 20.3 7 Oeste 12 Oeste 0 1016.2 1.1 79
2018-09-21 08:00:00 18.2 7 Oeste 12 Oeste 0 1015.9 0.6 86
2018-09-21 07:00:00 17.4 6 Oeste 10 Oeste 0 1015.5 0 92
2018-09-21 06:00:00 17.6 3 Sudoeste 9 Sudoeste 0 1015.1 -0.9 91
2018-09-21 05:00:00 17.9 5 Oeste 9 Sudoeste 0 1015.3 -1 90
2018-09-21 04:00:00 18.3 4 Oeste 9 Oeste 0 1015.5 -1.1 90
2018-09-21 03:00:00 19.2 6 Oeste 11 Oeste 0 1016 -0.8 89
2018-09-21 02:00:00 19.4 7 Oeste 10 Oeste 0 1016.3 -0.6 91
2018-09-21 01:00:00 19.7 4 Sudoeste 8 Oeste 0 1016.6 0 89
2018-09-21 00:00:00 20.7 0 Calma 6 Sudoeste 0 1016.8 0.5 84
2018-09-20 23:00:00 22.5 4 Sudoeste 13 Oeste 0 1016.9 0.5 80
2018-09-20 22:00:00 23 4 Sudoeste 11 Sudoeste 0 1016.6 0.1 78
2018-09-20 21:00:00 23.7 4 Oeste 8 Oeste 0 1016.3 -0.2 74
2018-09-20 20:00:00 25.2 4 Sudoeste 14 Sur 0 1016.4 -0.5 67
2018-09-20 19:00:00 27.6 8 Sudoeste 19 Sur 0 1016.5 -0.8 58
2018-09-20 18:00:00 29.4 10 Sur 19 Sur 0 1016.5 -1.4 51
2018-09-20 17:00:00 30.6 8 Sur 19 Sudeste 0 1016.9 -1.7 48
2018-09-20 16:00:00 30.6 10 Sur 20 Este 0 1017.3 -1.7 45
2018-09-20 15:00:00 29.9 8 Sudeste 18 Este 0 1017.9 -1.2 52
2018-09-20 14:00:00 28.2 11 Este 20 Este 0 1018.6 -0.7 59
2018-09-20 13:00:00 27.9 9 Este 19 Nordeste 0 1019 -0.1 60
2018-09-20 12:00:00 28.2 8 Nordeste 15 Nordeste 0 1019.1 0.2 60
2018-09-20 11:00:00 27.6 2 Este 12 Oeste 0 1019.3 0.7 63
2018-09-20 10:00:00 24.3 8 Oeste 12 Oeste 0 1019.1 0.6 74
2018-09-20 09:00:00 20.8 5 Oeste 11 Oeste 0 1018.9 0.3 90
2018-09-20 08:00:00 18.7 6 Oeste 10 Oeste 0 1018.6 -0.2 93
2018-09-20 07:00:00 19.2 7 Oeste 12 Sudoeste 0 1018.5 -0.6 92
2018-09-20 06:00:00 19.6 7 Oeste 13 Oeste 0 1018.6 -0.7 93
2018-09-20 05:00:00 19.5 8 Oeste 10 Oeste 0 1018.8 -0.8 93
2018-09-20 04:00:00 20.2 8 Sudoeste 10 Sudoeste 0 1019.1 -0.7 92
2018-09-20 03:00:00 20.6 6 Sudoeste 13 Oeste 0 1019.3 -0.8 91
2018-09-20 02:00:00 20.7 7 Sudoeste 10 Oeste 0 1019.6 -0.4 91
2018-09-20 01:00:00 21.6 7 Oeste 11 Oeste 0 1019.8 0.1 91
2018-09-20 00:00:00 21.7 6 Sudoeste 10 Oeste 0 1020.1 1.4 89
2018-09-19 23:00:00 22.5 6 Oeste 8 Oeste 0 1020 1.6 86
2018-09-19 22:00:00 23.8 5 Norte 8 Norte 0 1019.7 1.4 82
2018-09-19 21:00:00 24.3 5 Norte 10 Norte 0 1018.7 0.4 79
2018-09-19 20:00:00 25 8 Norte 14 Norte 0 1018.4 -0.3 73
2018-09-19 19:00:00 26.3 10 Norte 19 Nordeste 0 1018.3 -0.2 66
2018-09-19 18:00:00 27.3 12 Nordeste 22 Norte 0 1018.3 -0.6 65
2018-09-19 17:00:00 28.3 15 Nordeste 28 Nordeste 0 1018.7 -0.5 61
2018-09-19 16:00:00 28.8 17 Norte 31 Norte 0 1018.5 -0.9 61
2018-09-19 15:00:00 28.7 19 Norte 31 Norte 0 1018.9 -0.6 60
2018-09-19 14:00:00 28.8 18 Noroeste 32 Norte 0 1019.2 0.1 60
2018-09-19 13:00:00 28.7 16 Noroeste 32 Norte 0 1019.4 0.9 58
2018-09-19 12:00:00 27.8 16 Noroeste 31 Noroeste 0 1019.5 1.6 64
2018-09-19 11:00:00 26.7 15 Noroeste 27 Norte 0 1019.1 1.9 65
2018-09-19 10:00:00 25.4 14 Noroeste 25 Oeste 0 1018.5 1.5 70
2018-09-19 09:00:00 23.1 6 Noroeste 16 Noroeste 0 1017.9 1.4 80
2018-09-19 08:00:00 22 4 Sudoeste 19 Noroeste 0 1017.2 0.7 83
2018-09-19 07:00:00 22.3 10 Noroeste 22 Noroeste 0 1017 0.2 87
2018-09-19 06:00:00 21.1 8 Oeste 12 Oeste 0 1016.5 -0.5 89
2018-09-19 05:00:00 22.1 5 Oeste 18 Oeste 0 1016.5 -0.3 85
2018-09-19 04:00:00 22.3 4 Oeste 16 Noroeste 0 1016.8 -0.3 85
2018-09-19 03:00:00 22.6 6 Oeste 12 Oeste 0 1017 -0.3 85
2018-09-19 02:00:00 23.4 3 Noroeste 14 Noroeste 0 1016.8 0.2 81
2018-09-19 01:00:00 23.7 6 Norte 15 Noroeste 0 1017.1 0.7 82
2018-09-19 00:00:00 23.7 7 Noroeste 19 Norte 0 1017.3 1.5 81
2018-09-18 23:00:00 23.4 7 Noroeste 15 Noroeste 0 1016.6 1.2 82
2018-09-18 22:00:00 23.4 5 Norte 12 Norte 0 1016.4 1.6 81
2018-09-18 21:00:00 23.8 7 Norte 12 Noroeste 0 1015.8 1.5 79
2018-09-18 20:00:00 24.6 7 Norte 14 Norte 0 1015.4 0.8 75
2018-09-18 19:00:00 24.9 7 Norte 14 Nordeste 0 1014.8 0.3 72
2018-09-18 18:00:00 25.7 9 Nordeste 18 Nordeste 0 1014.3 -0.6 67
2018-09-18 17:00:00 25.7 9 Nordeste 19 Nordeste 0 1014.6 -0.6 67
2018-09-18 16:00:00 26.1 13 Norte 29 Nordeste 0 1014.5 -1 65
2018-09-18 15:00:00 27.8 16 Norte 30 Nordeste 0 1014.9 -0.9 62
2018-09-18 14:00:00 28.6 16 Norte 28 Noroeste 0 1015.2 -0.7 59
2018-09-18 13:00:00 27.9 16 Norte 27 Noroeste 0 1015.5 0.1 61
2018-09-18 12:00:00 27.3 15 Norte 31 Noroeste 0 1015.8 1 66
2018-09-18 11:00:00 26 16 Norte 29 Norte 0 1015.9 1.8 68
2018-09-18 10:00:00 24.2 16 Noroeste 26 Noroeste 0 1015.4 1.3 79
2018-09-18 09:00:00 21.8 5 Sudoeste 15 Oeste 0 1014.8 0.9 88
2018-09-18 08:00:00 21.2 5 Oeste 16 Sudoeste 0 1014.1 0.2 90
2018-09-18 07:00:00 21.5 4 Sudoeste 24 Oeste 0 1014.1 -0.2 90
2018-09-18 06:00:00 22.2 9 Noroeste 35 Norte 0 1013.9 -0.3 87
2018-09-18 05:00:00 22.4 8 Oeste 22 Noroeste 0 1013.9 -0.3 94
2018-09-18 04:00:00 22.6 5 Oeste 15 Oeste 0 1014.3 -0.3 94
2018-09-18 03:00:00 22.1 6 Oeste 9 Oeste 0 1014.2 -0.8 94
2018-09-18 02:00:00 22.8 6 Sudoeste 12 Oeste 0 1014.2 -0.7 92
2018-09-18 01:00:00 23.2 4 Sur 8 Sur 0 1014.6 -0.6 90
2018-09-18 00:00:00 24.2 3 Oeste 14 Este 0.4 1015 -0.1 87
2018-09-17 23:00:00 25.1 5 Este 14 Este 0 1014.9 0.2 81
2018-09-17 22:00:00 25.4 6 Este 13 Nordeste 0 1015.2 0.2 81
2018-09-17 21:00:00 25.4 5 Nordeste 13 Nordeste 0 1015.1 0 78
2018-09-17 20:00:00 25.6 6 Nordeste 14 Nordeste 0 1014.7 -0.6 76
2018-09-17 19:00:00 26.9 9 Nordeste 18 Nordeste 0 1015 -0.9 69
2018-09-17 18:00:00 27.6 10 Este 22 Nordeste 0 1015.1 -1.5 64
2018-09-17 17:00:00 28 14 Nordeste 21 Norte 0 1015.3 -1.8 63
2018-09-17 16:00:00 29.1 11 Norte 20 Norte 0 1015.9 -1.8 57
2018-09-17 15:00:00 29.2 13 Norte 23 Nordeste 0 1016.6 -1.8 58
2018-09-17 14:00:00 28.8 14 Norte 27 Noroeste 0 1017.1 -0.8 60
2018-09-17 13:00:00 28.2 17 Norte 27 Norte 0 1017.7 0.9 61
2018-09-17 12:00:00 28.4 13 Noroeste 28 Norte 0 1018.4 0 63
2018-09-17 11:00:00 26.3 15 Noroeste 27 Norte 0 1017.9 0.2 72
2018-09-17 10:00:00 23.5 13 Norte 30 Norte 0 1016.8 -0.6 83
2018-09-17 09:00:00 24 11 Noroeste 22 Norte 0 1018.4 1.1 82
2018-09-17 08:00:00 23 12 Noroeste 24 Noroeste 0 1017.7 0.5 86
2018-09-17 07:00:00 22.8 10 Noroeste 21 Noroeste 0 1017.4 -0.2 86
2018-09-17 06:00:00 23.2 13 Noroeste 23 Noroeste 0 1017.3 -1.1 84
2018-09-17 05:00:00 23.1 11 Noroeste 19 Noroeste 0 1017.2 -1.3 84
2018-09-17 04:00:00 23 10 Noroeste 20 Noroeste 0 1017.6 -1.1 86
2018-09-17 03:00:00 22.3 7 Oeste 12 Noroeste 0 1018.4 -0.7 88
2018-09-17 02:00:00 22.6 5 Noroeste 16 Norte 0 1018.5 -1 88
2018-09-17 01:00:00 23.1 9 Norte 15 Norte 0 1018.7 -0.1 87
2018-09-17 00:00:00 21.4 4 Noroeste 9 Sudoeste 0 1019.1 1 90
2018-09-16 23:00:00 22.3 4 Oeste 12 Oeste 0 1019.5 1.4 86
2018-09-16 22:00:00 22.8 0 Calma 9 Noroeste 0 1018.8 1.3 83
2018-09-16 21:00:00 23.6 5 Norte 13 Norte 0 1018.1 0.5 80
2018-09-16 20:00:00 24.7 9 Norte 14 Norte 0 1018.1 0.2 75
2018-09-16 19:00:00 26.5 7 Norte 14 Nordeste 0 1017.5 -0.9 64
2018-09-16 18:00:00 27.8 6 Nordeste 17 Norte 0 1017.6 -1.3 60
2018-09-16 17:00:00 27.7 10 Norte 21 Norte 0 1017.9 -1.2 64
2018-09-16 16:00:00 27.5 14 Norte 24 Nordeste 0 1018.4 -0.9 62
2018-09-16 15:00:00 27.7 14 Norte 24 Nordeste 0 1018.9 -0.1 60
2018-09-16 14:00:00 28.2 15 Norte 26 Norte 0 1019.1 -0.2 55
2018-09-16 13:00:00 27.7 14 Norte 34 Norte 0 1019.3 0 58
2018-09-16 12:00:00 26.2 22 Norte 37 Noroeste 0 1019 0 63
2018-09-16 11:00:00 24.7 19 Noroeste 31 Norte 0 1019.3 0.7 69
2018-09-16 10:00:00 23.6 11 Noroeste 21 Noroeste 0 1019.3 1 72
2018-09-16 09:00:00 22.4 2 Sudoeste 14 Sudoeste 0 1019 1 80
2018-09-16 08:00:00 21.9 6 Oeste 24 Noroeste 0 1018.6 0.6 78
2018-09-16 07:00:00 21.7 7 Oeste 24 Noroeste 0 1018.3 -0.1 81
2018-09-16 06:00:00 21.8 11 Noroeste 21 Noroeste 0 1018 -1.1 82
2018-09-16 05:00:00 22.1 10 Noroeste 26 Noroeste 0 1018 -1.5 81
2018-09-16 04:00:00 21.2 8 Oeste 20 Oeste 0 1018.4 -0.6 88
2018-09-16 03:00:00 20.9 4 Oeste 16 Sur 0 1019.1 -0.5 87
2018-09-16 02:00:00 21.6 5 Sudoeste 21 Oeste 0 1019.5 -0.2 86
2018-09-16 01:00:00 21.7 11 Noroeste 18 Noroeste 0 1019 -0.2 86
2018-09-16 00:00:00 21.9 5 Oeste 14 Noroeste 0 1019.6 1.2 87
2018-09-15 23:00:00 22.2 5 Noroeste 12 Sudoeste 0 1019.7 1.4 86
2018-09-15 22:00:00 22.6 5 Oeste 19 Oeste 0 1019.2 1.3 84
2018-09-15 21:00:00 23.2 10 Norte 30 Norte 0 1018.4 0.4 81
2018-09-15 20:00:00 23.3 17 Norte 31 Norte 0 1018.3 -0.2 82
2018-09-15 19:00:00 23.8 21 Norte 38 Norte 0 1017.9 -0.4 81
2018-09-15 18:00:00 24.9 12 Noroeste 34 Norte 0 1018 -0.8 72
2018-09-15 17:00:00 24.6 17 Noroeste 30 Noroeste 0 1018.5 -0.5 75
2018-09-15 16:00:00 25.4 13 Noroeste 25 Noroeste 0 1018.3 -0.7 74
2018-09-15 15:00:00 24.4 6 Oeste 17 Norte 0 1018.8 -0.2 78
2018-09-15 14:00:00 22.5 4 Sudoeste 12 Noroeste 1.8 1019 -0.2 90
2018-09-15 13:00:00 22.5 4 Oeste 9 Oeste 0 1019 0.8 86
2018-09-15 12:00:00 22.2 4 Sur 13 Este 0 1019 1 90
2018-09-15 11:00:00 21.4 2 Noroeste 9 Nordeste 0.6 1019.2 1.3 92
2018-09-15 10:00:00 20.5 8 Nordeste 18 Este 3 1018.2 1.5 92
2018-09-15 09:00:00 20.8 9 Oeste 14 Sudoeste 7.4 1018 1.4 93
2018-09-15 08:00:00 21.5 10 Este 28 Este 8.2 1017.9 1.1 91
2018-09-15 07:00:00 22.1 6 Norte 17 Nordeste 0 1016.7 -0.6 86
2018-09-15 06:00:00 23.2 6 Nordeste 13 Norte 2.2 1016.6 -1 93
2018-09-15 05:00:00 22.9 3 Sudoeste 6 Sudoeste 1.2 1016.8 -0.7 91
2018-09-15 04:00:00 23.2 4 Oeste 7 Oeste 0 1017.3 -0.4 87
2018-09-15 03:00:00 23.2 0 Calma 5 Oeste 0 1017.6 0 84
2018-09-15 02:00:00 23.3 0 Calma 9 Sudeste 0 1017.5 -0.2 80
2018-09-15 01:00:00 24.2 6 Sudeste 18 Sudeste 0 1017.7 0.6 77
2018-09-15 00:00:00 23.4 3 Sudeste 10 Sur 0 1017.6 1.4 82
2018-09-14 23:00:00 23.5 3 Sudoeste 7 Oeste 0 1017.7 1.7 80
2018-09-14 22:00:00 23.5 4 Sudoeste 7 Sudoeste 0 1017.1 0.6 80
2018-09-14 21:00:00 24.1 4 Sudoeste 8 Sudeste 0 1016.2 -0.4 76
2018-09-14 20:00:00 25.5 5 Este 15 Sudeste 0 1016 -0.4 68
2018-09-14 19:00:00 26.5 10 Sur 20 Sur 0 1016.5 -0.5 66
2018-09-14 18:00:00 28.4 8 Sudeste 24 Sur 0 1016.6 -0.7 56
2018-09-14 17:00:00 30.7 10 Sudeste 22 Sur 0 1016.4 -1.4 49
2018-09-14 16:00:00 30.6 9 Sur 24 Sur 0 1017 -1.2 44
2018-09-14 15:00:00 30.8 12 Sur 21 Sudeste 0 1017.3 -1 39
2018-09-14 14:00:00 29.9 8 Este 19 Sudeste 0 1017.8 -0.1 56
2018-09-14 13:00:00 28.8 8 Este 16 Este 0 1018.2 0.7 61
2018-09-14 12:00:00 27.7 5 Este -- -- -- 1018.3 1.1 66
2018-09-14 11:00:00 25.7 3 Sur 10 Oeste 0 1017.9 0.8 75
2018-09-14 10:00:00 22.1 4 Sudoeste 11 Oeste 0 1017.5 0.8 84
2018-09-14 09:00:00 20.6 8 Oeste 15 Oeste 0 1017.2 0.7 88
2018-09-14 08:00:00 19.1 8 Oeste 11 Oeste 0 1017.1 0.7 90
2018-09-14 07:00:00 20.1 7 Oeste 12 Oeste 0 1016.7 -0.1 88
2018-09-14 06:00:00 20 7 Oeste 10 Oeste 0 1016.5 -0.4 91
2018-09-14 05:00:00 19.9 5 Oeste 10 Oeste 0 1016.4 -0.9 89
2018-09-14 04:00:00 20 6 Sudoeste 9 Sudoeste 0 1016.8 -0.4 91
2018-09-14 03:00:00 20.4 6 Sudoeste 10 Oeste 0 1016.9 -0.2 90
2018-09-14 02:00:00 21.2 5 Oeste 12 Oeste 0 1017.3 0.2 89
2018-09-14 01:00:00 21.1 4 Oeste 10 Sudoeste 0 1017.2 0.1 89
2018-09-14 00:00:00 21.1 6 Sudoeste 9 Oeste 0 1017.1 0.5 89
2018-09-13 23:00:00 21.7 6 Sudoeste 10 Sudoeste 0 1017.1 0.7 87
2018-09-13 22:00:00 22.6 4 Oeste 7 Sudoeste 0 1017.1 0.6 83
2018-09-13 21:00:00 24.1 2 Sudoeste 4 Sudeste 0 1016.6 0.1 75
2018-09-13 20:00:00 26 3 Sudeste 10 Este 0 1016.4 -0.3 69
2018-09-13 19:00:00 26.4 5 Este 16 Nordeste 0 1016.5 -0.3 65
2018-09-13 18:00:00 28.3 8 Este 21 Norte 0 1016.5 -0.7 58
2018-09-13 17:00:00 28.4 14 Norte 28 Norte 0 1016.7 -1 55
2018-09-13 16:00:00 28.6 17 Norte 32 Nordeste 0 1016.8 -1.3 57
2018-09-13 15:00:00 28.8 19 Nordeste 31 Nordeste 0 1017.2 -1 59
2018-09-13 14:00:00 28.9 14 Norte 25 Noroeste 0 1017.7 -0.1 56
2018-09-13 13:00:00 28.1 15 Noroeste 26 Noroeste 0 1018.1 0.8 63
2018-09-13 12:00:00 28.6 17 Noroeste 28 Noroeste 0 1018.2 0.9 61
2018-09-13 11:00:00 28 18 Norte 32 Noroeste 0 1017.8 1.1 57
2018-09-13 10:00:00 26.8 15 Noroeste 23 Noroeste 0 1017.3 0.8 62
2018-09-13 09:00:00 23.7 9 Norte 17 Norte 0 1017.3 1.1 88
2018-09-13 08:00:00 19.9 4 Sudoeste 10 Oeste 0 1016.7 0.4 91
2018-09-13 07:00:00 19.7 0 Calma 6 Sudoeste 0 1016.5 0 91
2018-09-13 06:00:00 20.1 4 Oeste 11 Oeste 0 1016.2 -0.8 90
2018-09-13 05:00:00 20.7 7 Oeste 10 Oeste 0 1016.3 -1.3 91
2018-09-13 04:00:00 20.9 6 Oeste 12 Oeste 0 1016.5 -1.3 91
2018-09-13 03:00:00 21.7 8 Sudoeste 10 Sudoeste 0 1017 -1.3 89
2018-09-13 02:00:00 22.2 5 Noroeste 11 Sudoeste 0 1017.6 -0.7 89
2018-09-13 01:00:00 23.1 4 Sudoeste 9 Noroeste 0 1017.8 -0.2 85
2018-09-13 00:00:00 24.5 3 Noroeste 15 Oeste 0 1018.3 0.4 81
2018-09-12 23:00:00 25 5 Sudoeste 15 Sudoeste 0 1018.3 0.3 79
2018-09-12 22:00:00 25.1 9 Sudoeste 26 Sudoeste 0 1018 -0.1 80
2018-09-12 21:00:00 25.2 9 Sudoeste 21 Sudoeste 0 1017.9 -0.1 79
2018-09-12 20:00:00 25.6 11 Sur 26 Sur 0 1018 -0.7 75
2018-09-12 19:00:00 26.6 13 Sur 28 Sur 0 1018.1 -1.1 69
2018-09-12 18:00:00 28.7 12 Sur 25 Sur 0 1018 -2 60
2018-09-12 17:00:00 27.2 6 Este 16 Este 0 1018.7 -2.1 67
2018-09-12 16:00:00 27.7 8 Este 17 Nordeste 0 1019.2 -2.4 64
2018-09-12 15:00:00 27.7 11 Norte 19 Nordeste 0 1020 -1.3 63
2018-09-12 14:00:00 29.3 8 Nordeste 19 Norte 0 1020.8 -0.6 55
2018-09-12 13:00:00 27.5 12 Norte 26 Norte 0 1021.6 0.6 62
2018-09-12 12:00:00 26.8 12 Noroeste 19 Noroeste 0 1021.3 0.4 67
2018-09-12 11:00:00 26.1 7 Noroeste 16 Noroeste 0 1021.4 1.3 68
2018-09-12 10:00:00 24.4 5 Oeste 14 Sudoeste 0 1021 0.9 75
2018-09-12 09:00:00 23.8 6 Oeste 27 Noroeste 0 1020.9 1.2 77
2018-09-12 08:00:00 23.7 16 Noroeste 25 Noroeste 0 1020.1 0.6 79
2018-09-12 07:00:00 23.7 9 Noroeste 27 Noroeste 0 1020.1 0.5 81
2018-09-12 06:00:00 23.6 14 Noroeste 30 Noroeste 0 1019.7 -0.5 82
2018-09-12 05:00:00 23.8 15 Noroeste 32 Noroeste 0 1019.5 -1.5 82
2018-09-12 04:00:00 23.9 13 Noroeste 28 Noroeste 0 1019.6 -1.5 83
2018-09-12 03:00:00 24 17 Noroeste 27 Noroeste 0 1020.2 -0.7 83
2018-09-12 02:00:00 24.9 13 Norte 20 Norte 0 1021 0 78
2018-09-12 01:00:00 24.7 11 Norte 21 Norte 0 1021.1 0.4 78
2018-09-12 00:00:00 25 13 Norte 23 Nordeste 0 1020.9 0.7 76
2018-09-11 23:00:00 25.5 14 Nordeste 27 Norte 0 1021 1.1 72
2018-09-11 22:00:00 25.5 17 Nordeste 30 Nordeste 0 1020.7 1 71
2018-09-11 21:00:00 25.5 15 Nordeste 30 Nordeste 0 1020.2 0.9 72
2018-09-11 20:00:00 25.7 16 Norte 32 Norte 0 1019.9 -0.1 71
2018-09-11 19:00:00 26.3 14 Nordeste 28 Nordeste 0 1019.7 -1 70
2018-09-11 18:00:00 27.5 12 Nordeste 28 Norte 0 1019.3 -1.9 65
2018-09-11 17:00:00 27.7 14 Nordeste 25 Nordeste 0 1020 -1.5 66
2018-09-11 16:00:00 27.4 14 Nordeste 31 Nordeste 0 1020.7 -0.5 65
2018-09-11 15:00:00 27.7 15 Nordeste 28 Nordeste 0 1021.2 0.1 63
2018-09-11 14:00:00 27.2 15 Nordeste 30 Nordeste 0 1021.5 -0.4 63
2018-09-11 13:00:00 28.2 17 Norte 29 Norte 0 1021.2 -0.6 63
2018-09-11 12:00:00 26.1 16 Norte 29 Norte 0 1021.1 0.1 69
2018-09-11 11:00:00 24.2 5 Noroeste 18 Oeste 0 1021.9 1 78
2018-09-11 10:00:00 24.8 8 Noroeste 21 Norte 0 1021.8 1 77
2018-09-11 09:00:00 24.5 13 Norte 24 Norte 0 1021 0.3 80
2018-09-11 08:00:00 23.4 17 Norte 31 Norte 0 1020.9 0.3 84
2018-09-11 07:00:00 23.9 13 Nordeste 25 Norte 0 1020.8 0.2 81
2018-09-11 06:00:00 24.7 14 Norte 28 Nordeste 0 1020.7 0 70
2018-09-11 05:00:00 24.6 16 Norte 27 Norte 0 1020.6 -0.4 71
2018-09-11 04:00:00 24.5 15 Norte 26 Norte 0 1020.6 -0.4 71
2018-09-11 03:00:00 24.3 14 Norte 27 Norte 0 1020.7 -0.4 73
2018-09-11 02:00:00 24.5 15 Norte 28 Norte 0 1021 -0.5 73
2018-09-11 01:00:00 24.5 14 Norte 30 Nordeste 0 1021 -0.2 73
2018-09-11 00:00:00 24.6 19 Norte 31 Nordeste 0 1021.1 0.7 69
2018-09-10 23:00:00 24.8 15 Nordeste 26 Norte 0 1021.5 1.3 68
2018-09-10 22:00:00 24.8 17 Nordeste 27 Norte 0 1021.2 1 68
2018-09-10 21:00:00 24.7 15 Norte 27 Nordeste 0 1020.4 0.2 70
2018-09-10 20:00:00 25 15 Norte 29 Norte 0 1020.2 -0.2 68
2018-09-10 19:00:00 25.5 16 Norte 30 Norte 0 1020.2 -0.3 67
2018-09-10 18:00:00 26.5 18 Norte 30 Norte 0 1020.2 -0.5 66
2018-09-10 17:00:00 27.2 18 Norte 33 Norte 0 1020.4 -0.2 60
2018-09-10 16:00:00 28 19 Norte 34 Nordeste 0 1020.5 -0.1 56
2018-09-10 15:00:00 26.7 18 Norte 37 Norte 0 1020.7 -0.1 61
2018-09-10 14:00:00 26.9 18 Norte 36 Nordeste 0 1020.6 0 65
2018-09-10 13:00:00 27.1 19 Norte 32 Norte 0 1020.6 0.8 69
2018-09-10 12:00:00 25 16 Norte 28 Norte 1.6 1020.8 1.7 83
2018-09-10 11:00:00 25.3 16 Noroeste 38 Norte 0 1020.6 1.8 73
2018-09-10 10:00:00 23.9 24 Norte 48 Norte 0 1019.8 2.2 68
2018-09-10 09:00:00 23.2 19 Noroeste 38 Noroeste 0 1019.1 1.5 80
2018-09-10 08:00:00 21.9 13 Noroeste 23 Noroeste 0 1018.8 1.4 82
2018-09-10 07:00:00 21.5 9 Oeste 23 Norte 0 1017.6 0.1 84
2018-09-10 06:00:00 22.3 18 Noroeste 38 Noroeste 0 1017.6 0 84
2018-09-10 05:00:00 22.5 13 Noroeste 23 Noroeste 0 1017.4 -0.2 85
2018-09-10 04:00:00 22.8 8 Oeste 25 Noroeste 0 1017.5 -0.5 81
2018-09-10 03:00:00 22.7 5 Oeste 23 Noroeste 0 1017.6 -0.2 86
2018-09-10 02:00:00 22.8 8 Oeste 29 Norte 2 1017.6 -0.2 91
2018-09-10 01:00:00 23 5 Noroeste 21 Noroeste 0.8 1018 1 90
2018-09-10 00:00:00 23.3 12 Norte 23 Norte 6.8 1017.8 2 89
2018-09-09 23:00:00 24.3 10 Noroeste 25 Noroeste 0 1017.8 2.3 81
2018-09-09 22:00:00 24.1 11 Noroeste 26 Noroeste 0 1017 0.8 80
2018-09-09 21:00:00 24.2 15 Norte 26 Norte 0 1015.8 -0.8 81
2018-09-09 20:00:00 23.8 13 Norte 22 Noroeste 0 1015.5 -1.8 83
2018-09-09 19:00:00 25.1 4 Oeste 28 Nordeste 1 1016.2 -0.4 81
2018-09-09 18:00:00 25.6 6 Noroeste 13 Oeste 0.2 1016.6 -0.4 73
2018-09-09 17:00:00 27 8 Nordeste 24 Nordeste 0 1017.3 0 60
2018-09-09 16:00:00 28.9 12 Nordeste 25 Norte 0 1016.6 -1.2 52
2018-09-09 15:00:00 29.1 14 Nordeste 27 Nordeste 0 1017 -1 51
2018-09-09 14:00:00 28.8 15 Nordeste 26 Nordeste 0 1017.3 -0.5 56
2018-09-09 13:00:00 27.5 14 Nordeste 25 Nordeste 0 1017.8 1 62
2018-09-09 12:00:00 29.2 12 Nordeste 23 Nordeste 0 1018 1.4 53
2018-09-09 11:00:00 28.3 9 Nordeste 20 Norte 0 1017.8 1.4 60
2018-09-09 10:00:00 26.3 12 Norte 22 Norte 0 1016.8 1 69
2018-09-09 09:00:00 24.5 12 Noroeste 23 Norte 0 1016.6 0.5 77
2018-09-09 08:00:00 23.8 13 Noroeste 28 Noroeste 0 1016.4 -0.6 82
2018-09-09 07:00:00 23.3 13 Norte 30 Noroeste 0 1015.8 -0.9 79
2018-09-09 06:00:00 23.4 13 Noroeste 26 Oeste 0 1016.1 -0.3 79
2018-09-09 05:00:00 22.8 7 Oeste 15 Noroeste 0 1017 0.5 80
2018-09-09 04:00:00 23.7 9 Noroeste 25 Noroeste 0 1016.7 0.1 76
2018-09-09 03:00:00 22.9 6 Noroeste 17 Noroeste 0 1016.4 -1 84
2018-09-09 02:00:00 22.3 10 Oeste 18 Oeste 0 1016.5 -0.6 89
2018-09-09 01:00:00 22.8 4 Sudoeste 9 Oeste 0 1016.6 -0.4 86
2018-09-09 00:00:00 23.7 3 Sudoeste 11 Este 0 1017.4 1 81
2018-09-08 23:00:00 24.3 10 Noroeste 18 Noroeste 0 1017.1 1.2 71
2018-09-08 22:00:00 24.5 6 Norte 11 Norte 0 1017 1.2 72
2018-09-08 21:00:00 24.7 7 Norte 13 Norte 0 1016.4 1.2 72
2018-09-08 20:00:00 25.4 9 Nordeste 16 Nordeste 0 1015.9 0.3 69
2018-09-08 19:00:00 25.8 8 Nordeste 18 Nordeste 0 1015.8 0 67
2018-09-08 18:00:00 26.4 11 Nordeste 19 Nordeste 0 1015.2 -1.6 65
2018-09-08 17:00:00 27.9 11 Nordeste 19 Nordeste 0 1015.6 -2.2 60
2018-09-08 16:00:00 26.9 10 Nordeste 20 Nordeste 0 1015.8 -1.8 61
2018-09-08 15:00:00 27.3 7 Nordeste 12 Nordeste 0 1016.8 -1.2 56
2018-09-08 14:00:00 26.7 4 Este 9 Este 0 1017.8 0.3 57
2018-09-08 13:00:00 26.5 4 Nordeste 9 Sudeste 0 1017.6 0.9 58
2018-09-08 12:00:00 26.4 4 Este 15 Este 0 1018 2 61
2018-09-08 11:00:00 26.1 8 Este 18 Este 0 1017.5 1.9 69
2018-09-08 10:00:00 24.9 4 Sudoeste 10 Oeste 0 1016.7 1.6 71
2018-09-08 09:00:00 23.6 8 Oeste 13 Sur 0 1016 0.8 75
2018-09-08 08:00:00 20.9 7 Sudoeste 15 Norte 0 1015.6 0.3 84
2018-09-08 07:00:00 19.2 8 Sudoeste 11 Sudoeste 0 1015.1 -0.2 88
2018-09-08 06:00:00 19 8 Sudoeste 12 Sudoeste 0 1015.2 0 88
2018-09-08 05:00:00 19.5 9 Sudoeste 15 Oeste 0 1015.3 -0.3 86
2018-09-08 04:00:00 20.4 8 Oeste 15 Oeste 0 1015.3 -0.5 88
2018-09-08 03:00:00 20.4 8 Sudoeste 12 Oeste 0 1015.2 -0.3 87
2018-09-08 02:00:00 21 7 Oeste 14 Oeste 0 1015.6 0.1 89
2018-09-08 01:00:00 20.7 7 Oeste 11 Oeste 0 1015.8 0.8 89
2018-09-08 00:00:00 21 4 Sudoeste 6 Oeste 0 1015.5 1.4 88
2018-09-07 23:00:00 21.7 2 Oeste 8 Sur 0 1015.5 1.7 84
2018-09-07 22:00:00 22.4 3 Sur 6 Sur 0 1015 1.5 80
2018-09-07 21:00:00 24 3 Sudoeste 9 Sudeste 0 1014.1 0.7 72
2018-09-07 20:00:00 26.1 5 Sudeste 18 Sudeste 0 1013.8 0.4 64
2018-09-07 19:00:00 27.5 9 Este 18 Este 0 1013.5 -0.2 58
2018-09-07 18:00:00 28.3 9 Este 23 Este 0 1013.4 -0.5 52
2018-09-07 17:00:00 28.1 9 Este 20 Nordeste 0 1013.4 -1 57
2018-09-07 16:00:00 28.3 12 Nordeste 22 Este 0 1013.7 -1.4 55
2018-09-07 15:00:00 29.7 7 Norte 16 Norte 0 1013.9 -1 46
2018-09-07 14:00:00 25.8 4 Oeste 30 Sur 0 1014.4 -0.2 59
2018-09-07 13:00:00 26.6 6 Sudeste 14 Este 0 1015.1 1 64
2018-09-07 12:00:00 27.7 8 Este 18 Este 0 1014.9 1 60
2018-09-07 11:00:00 26.4 11 Nordeste 17 Nordeste 0 1014.6 0.9 55
2018-09-07 10:00:00 26 9 Nordeste 17 Nordeste 0 1014.1 0.9 66
2018-09-07 09:00:00 25 7 Nordeste 19 Nordeste 0 1013.9 1.3 73
2018-09-07 08:00:00 24.6 11 Nordeste 22 Nordeste 0 1013.7 0.9 76
2018-09-07 07:00:00 24.5 9 Nordeste 18 Nordeste 0 1013.2 0.6 73
2018-09-07 06:00:00 23.6 8 Norte 18 Norte 0 1012.6 -0.2 79
2018-09-07 05:00:00 22.1 4 Oeste 13 Norte 0 1012.8 -0.3 83
2018-09-07 04:00:00 22.2 5 Norte 12 Oeste 0 1012.6 -0.7 85
2018-09-07 03:00:00 21.9 5 Oeste 9 Oeste 0 1012.8 -0.7 85
2018-09-07 02:00:00 22.6 6 Sudoeste 9 Sudoeste 0 1013.1 -0.3 83
2018-09-07 01:00:00 23.4 3 Oeste 8 Sudoeste 0 1013.3 0.8 80
2018-09-07 00:00:00 23.7 3 Oeste 8 Sudoeste 0 1013.5 1.9 76
2018-09-06 23:00:00 24.3 7 Oeste 12 Oeste 0 1013.4 2.4 73
2018-09-06 22:00:00 24.4 5 Noroeste 11 Norte 0 1012.5 1.9 73
2018-09-06 21:00:00 24.9 8 Norte 17 Norte 0 1011.6 0.9 70
2018-09-06 20:00:00 25.4 10 Norte 23 Nordeste 0 1011 0.4 68
2018-09-06 19:00:00 25.9 14 Nordeste 23 Norte 0 1010.6 -0.5 66
2018-09-06 18:00:00 28.4 10 Nordeste 17 Norte 0 1010.7 -1.3 54
2018-09-06 17:00:00 29.7 6 Este 15 Este 0 1010.6 -1.2 49
2018-09-06 16:00:00 28.5 8 Norte 21 Norte 0 1011.1 -0.4 56
2018-09-06 15:00:00 26.3 15 Norte 32 Nordeste 0 1012 0.3 62
2018-09-06 14:00:00 26.6 18 Norte 40 Norte 0 1011.8 0 63
2018-09-06 13:00:00 29.1 22 Noroeste 38 Noroeste 0 1011.5 0.1 54
2018-09-06 12:00:00 29.3 15 Noroeste 29 Norte 0 1011.7 0.7 51
2018-09-06 11:00:00 27.1 13 Nordeste 31 Nordeste 0 1011.8 1.2 56
2018-09-06 10:00:00 25.9 14 Norte 25 Norte 0 1011.4 1.2 61
2018-09-06 09:00:00 24.2 10 Oeste 20 Oeste 0 1011 1.1 83
2018-09-06 08:00:00 24.5 6 Noroeste 22 Norte 0 1010.6 0.7 84
2018-09-06 07:00:00 24.4 11 Norte 18 Norte 0 1010.2 0.3 86
2018-09-06 06:00:00 23.4 4 Noroeste 15 Norte 0 1009.9 -0.5 89
2018-09-06 05:00:00 22.3 5 Sur 11 Sur 0 1009.9 -1 87
2018-09-06 04:00:00 23 4 Sur 12 Sudoeste 0 1009.9 -1.1 86
2018-09-06 03:00:00 23.9 6 Oeste 11 Oeste 0 1010.4 -0.3 83
2018-09-06 02:00:00 24.4 4 Oeste 15 Oeste 0 1010.9 0.5 85
2018-09-06 01:00:00 23.5 6 Oeste 10 Noroeste 0 1011 0.7 83
2018-09-06 00:00:00 23.7 6 Oeste 14 Sudoeste 0 1010.7 1 82
2018-09-05 23:00:00 25.1 5 Oeste 12 Sudoeste 0 1010.4 1.1 75
2018-09-05 22:00:00 -- -- -- -- -- -- -- -- --
2018-09-05 21:00:00 26 3 Sudoeste 13 Sudeste 0 1009.7 -0.2 71
2018-09-05 20:00:00 27.5 8 Sur 20 Sudoeste 0 1009.3 -1 64
2018-09-05 19:00:00 29.8 7 Sudoeste 21 Sudoeste 0 1009.6 -1.1 55
2018-09-05 18:00:00 31 11 Sur 26 Sur 0 1009.9 -1.5 51
2018-09-05 17:00:00 32.3 11 Sudoeste 25 Sur 0 1010.3 -1.7 44
2018-09-05 16:00:00 32.4 12 Sur 30 Sudoeste 0 1010.7 -2 43
2018-09-05 15:00:00 31.4 15 Sur 26 Sur 0 1011.4 -1.8 48
2018-09-05 14:00:00 29.6 9 Sur 19 Sudoeste 0 1012 -1.2 56
2018-09-05 13:00:00 30.5 8 Nordeste 20 Este 0 1012.7 -0.1 57
2018-09-05 12:00:00 30.1 8 Este 18 Este 0 1013.2 0.7 57
2018-09-05 11:00:00 29.1 9 Nordeste 17 Nordeste 0 1013.2 0.8 63
2018-09-05 10:00:00 27.9 2 Sur 8 Sudoeste 0 1012.8 1 72
2018-09-05 09:00:00 23.4 6 Sudoeste 12 Oeste 0 1012.5 1 89
2018-09-05 08:00:00 21.7 6 Sudoeste 9 Oeste 0 1012.4 1.4 92
2018-09-05 07:00:00 22.2 5 Oeste 9 Sudoeste 0 1011.8 0.7 90
2018-09-05 06:00:00 22.6 5 Oeste 13 Oeste 0 1011.5 0.3 90
2018-09-05 05:00:00 22.6 6 Sudoeste 13 Oeste 0 1011 -0.8 90
2018-09-05 04:00:00 22.3 5 Oeste 12 Oeste 0 1011.1 -0.9 90
2018-09-05 03:00:00 22.3 8 Sudoeste 11 Oeste 0 1011.2 -0.5 90
2018-09-05 02:00:00 22.8 6 Sudoeste 9 Oeste 0 1011.8 0.4 89
2018-09-05 01:00:00 23.3 6 Sudoeste 10 Sudoeste 0 1012 1 86
2018-09-05 00:00:00 24 6 Oeste 10 Oeste 0 1011.7 1.3 84
2018-09-04 23:00:00 24.1 6 Sudoeste 8 Sudoeste 0 1011.4 1.6 84
2018-09-04 22:00:00 24.9 2 Oeste 6 Sudoeste 0 1011 1.2 79
2018-09-04 21:00:00 26.1 3 Sur 12 Este 0 1010.4 0.7 74
2018-09-04 20:00:00 27.5 5 Este 16 Este 0 1009.8 -0.2 68
2018-09-04 19:00:00 28.9 6 Este 19 Nordeste 0 1009.8 -0.4 63
2018-09-04 18:00:00 29.4 9 Este 21 Este 0 1009.7 -0.7 61
2018-09-04 17:00:00 30 9 Este 21 Este 0 1010 -0.8 61
2018-09-04 16:00:00 29.1 13 Nordeste 22 Nordeste 0 1010.2 -0.7 63
2018-09-04 15:00:00 29.5 11 Nordeste 21 Este 0 1010.4 -0.9 60
2018-09-04 14:00:00 29.7 13 Nordeste 20 Nordeste 0 1010.8 -0.7 59
2018-09-04 13:00:00 30.1 10 Este 20 Este 0 1010.9 -0.3 55
2018-09-04 12:00:00 30.6 8 Este 15 Este 0 1011.3 0.1 53
2018-09-04 11:00:00 29.3 6 Nordeste 12 Noroeste 0 1011.5 0.7 57
2018-09-04 10:00:00 26.6 2 Este 9 Sudoeste 0 1011.2 0.8 63
2018-09-04 09:00:00 23.6 2 Sudoeste 10 Sudoeste 0 1011.2 0.7 74
2018-09-04 08:00:00 22.4 5 Sudoeste 11 Oeste 0 1010.8 0.3 77
2018-09-04 07:00:00 22.5 6 Sudoeste 12 Sudoeste 0 1010.4 -0.1 76
2018-09-04 06:00:00 22.4 6 Oeste 14 Sudoeste 0 1010.5 -0.2 80
2018-09-04 05:00:00 23.2 7 Noroeste 19 Noroeste 0 1010.5 -0.4 81
2018-09-04 04:00:00 21.1 5 Oeste 11 Sudoeste 0 1010.5 -0.6 86
2018-09-04 03:00:00 21.2 8 Sudoeste 12 Oeste 0 1010.7 -0.2 85
2018-09-04 02:00:00 21.1 7 Oeste 14 Sudoeste 0 1010.9 -0.3 83
2018-09-04 01:00:00 21.2 8 Oeste 17 Sudoeste 0 1011.1 -1.2 75
2018-09-04 00:00:00 22.3 5 Sudoeste 11 Sudoeste 0 1010.9 -2.6 70
2018-09-03 23:00:00 24.4 3 Nordeste 22 Norte 0 1011.2 0.1 74
2018-09-03 22:00:00 24.2 10 Norte 29 Norte 0 1012.3 1.4 66
2018-09-03 21:00:00 25.7 17 Noroeste 34 Noroeste 0 1013.5 3 63
2018-09-03 20:00:00 26.8 3 Sur 16 Sudeste 0 1011.1 0.9 73
2018-09-03 19:00:00 27.7 9 Sudeste 19 Sur 0 1010.9 0.3 70
2018-09-03 18:00:00 28.2 9 Este 18 Este 0 1010.5 -1 68
2018-09-03 17:00:00 29.1 12 Este 22 Este 0 1010.2 -1.7 63
2018-09-03 16:00:00 29.4 11 Este 21 Este 0 1010.6 -1.9 64
2018-09-03 15:00:00 30.4 8 Este 19 Este 0 1011.5 -0.8 60
2018-09-03 14:00:00 29.9 9 Este 21 Este 0 1011.9 -0.4 62
2018-09-03 13:00:00 28.1 5 Este 17 Nordeste 0 1012.5 0.3 67
2018-09-03 12:00:00 29.4 10 Este 18 Nordeste 0 1012.3 0.8 64
2018-09-03 11:00:00 27.5 8 Nordeste 19 Norte 0 1012.3 0.8 71
2018-09-03 10:00:00 27.7 8 Nordeste 16 Norte 0 1012.2 1.2 72
2018-09-03 09:00:00 24.6 4 Sudoeste 10 Oeste 0 1011.5 1.1 85
2018-09-03 08:00:00 23.3 5 Sudoeste 9 Oeste 0 1011.5 -0.1 88
2018-09-03 07:00:00 23.7 6 Oeste 12 Sudoeste 0 1011 0.1 87
2018-09-03 06:00:00 24 5 Nordeste 10 Norte 0 1010.4 -2.5 85
2018-09-03 05:00:00 24.1 4 Oeste 11 Sudoeste 0 1011.6 -1 85
2018-09-03 04:00:00 24.1 3 Sudeste 10 Sur 0 1010.9 -1.7 84
2018-09-03 03:00:00 25.2 8 Oeste 18 Noroeste 0 1012.9 0.3 80
2018-09-03 02:00:00 24.7 6 Oeste 11 Sur 0 1012.6 0 82
2018-09-03 01:00:00 25 5 Sudoeste 18 Sur 0 1012.6 0.2 81
2018-09-03 00:00:00 25.5 11 Sur 22 Sur 0 1012.6 1 79
2018-09-02 23:00:00 25.9 10 Sur 23 Sur 0 1012.6 1 77
2018-09-02 22:00:00 26 12 Sur 28 Sudoeste 0 1012.4 0.4 76
2018-09-02 21:00:00 26 15 Sur 35 Sur 0 1011.6 -0.6 75
2018-09-02 20:00:00 26.6 15 Sur 30 Sur 0 1011.6 -1.1 70
2018-09-02 19:00:00 28.8 12 Sur 28 Sur 0 1012 -1.3 61
2018-09-02 18:00:00 28.9 15 Sur 36 Sur 0 1012.2 -1.5 61
2018-09-02 17:00:00 29.8 15 Sur 31 Sur 0 1012.7 -1.6 56
2018-09-02 16:00:00 31.4 12 Sur 35 Sudeste 0 1013.3 -1.9 51
2018-09-02 15:00:00 30.7 14 Sur 32 Sur 0 1013.7 -2.3 52
2018-09-02 14:00:00 31.4 14 Sur 32 Sur 0 1014.3 -2 51
2018-09-02 13:00:00 30.4 15 Sur 30 Sudeste 0 1015.2 -0.9 53
2018-09-02 12:00:00 29.7 13 Sur 27 Sudeste 0 1016 0.1 56
2018-09-02 11:00:00 27.8 13 Sudeste 23 Sur 0 1016.3 0.8 64
2018-09-02 10:00:00 26.1 5 Sudoeste 9 Sudoeste 0 1016.1 0.9 73
2018-09-02 09:00:00 22.4 4 Sudoeste 10 Oeste 0 1015.9 0.4 88
2018-09-02 08:00:00 21.4 6 Oeste 10 Oeste 0 1015.5 -0.3 91
2018-09-02 07:00:00 21.1 6 Oeste 12 Oeste 0 1015.2 -1 91
2018-09-02 06:00:00 21.5 7 Oeste 11 Oeste 0 1015.5 -0.9 90
2018-09-02 05:00:00 22 5 Sudoeste 10 Oeste 0 1015.8 -0.8 89
2018-09-02 04:00:00 22.1 5 Oeste 8 Oeste 0 1016.2 -0.4 89
2018-09-02 03:00:00 22.4 5 Oeste 8 Sudoeste 0 1016.4 0 86
2018-09-02 02:00:00 23.6 6 Sudoeste 10 Sudoeste 0 1016.6 0.3 82
2018-09-02 01:00:00 24.3 6 Sudoeste 15 Sur 0 1016.6 0.4 80
2018-09-02 00:00:00 24.6 8 Sudoeste 16 Sudoeste 0 1016.4 0.9 78
2018-09-01 23:00:00 24.7 7 Sudoeste 17 Sur 0 1016.3 1.1 76
2018-09-01 22:00:00 24.9 6 Sudoeste 17 Sur 0 1016.2 0.9 73
2018-09-01 21:00:00 25.6 11 Sur 23 Sur 0 1015.5 -0.1 70
2018-09-01 20:00:00 26.8 10 Sur 26 Sur 0 1015.2 -0.6 65
2018-09-01 19:00:00 28.4 15 Sur 28 Sudeste 0 1015.3 -1 56
2018-09-01 18:00:00 29.4 16 Sur 27 Sudeste 0 1015.6 -1.2 53
2018-09-01 17:00:00 30.4 15 Sur 27 Sudeste 0 1015.8 -1.3 48
2018-09-01 16:00:00 30.9 14 Sudeste 30 Sudeste 0 1016.3 -1.3 47
2018-09-01 15:00:00 31.3 13 Sudeste 26 Sur 0 1016.8 -1.1 43
2018-09-01 14:00:00 31.2 12 Sur 24 Sur 0 1017.1 -0.8 48
2018-09-01 13:00:00 30.9 9 Sur 21 Sur 0 1017.6 0.1 48
2018-09-01 12:00:00 28.9 8 Este 15 Este 0 1017.9 0.7 55
2018-09-01 11:00:00 29.1 6 Nordeste 12 Nordeste 0 1017.9 0.8 57
2018-09-01 10:00:00 26.9 2 Sudeste 11 Oeste 0 1017.5 0.7 67
2018-09-01 09:00:00 23.4 9 Sudoeste 12 Oeste 0 1017.2 0.7 77
2018-09-01 08:00:00 21 8 Oeste 12 Oeste 0 1017.1 0.3 87
2018-09-01 07:00:00 20.8 7 Oeste 12 Oeste 0 1016.8 0 87
2018-09-01 06:00:00 21.4 7 Oeste 12 Oeste 0 1016.5 -0.3 88
2018-09-01 05:00:00 21.2 6 Sudoeste 11 Oeste 0 1016.8 -0.1 91
2018-09-01 04:00:00 21.2 5 Sudoeste 10 Oeste 0 1016.8 -0.2 89
2018-09-01 03:00:00 21.6 6 Sudoeste 9 Sudoeste 0 1016.8 -0.4 88
2018-09-01 02:00:00 21.9 6 Sudoeste 9 Sudoeste 0 1016.9 -0.1 87
2018-09-01 01:00:00 22.4 6 Oeste 8 Oeste 0 1017 0.2 86
2018-09-01 00:00:00 22.3 5 Sudoeste 7 Sudoeste 0 1017.2 1.1 85
2018-08-31 23:00:00 23 4 Oeste 5 Sudoeste 0 1017 1.4 80
2018-08-31 22:00:00 24.3 0 Calma 8 Sur 0 1016.8 1.5 73
2018-08-31 21:00:00 25.5 4 Sur 13 Sur 0 1016.1 0.8 69
2018-08-31 20:00:00 26.6 8 Sudeste 18 Sudeste 0 1015.6 0.2 64
2018-08-31 19:00:00 27.7 8 Sudeste 18 Sudeste 0 1015.3 -0.7 61
2018-08-31 18:00:00 28 12 Sur 21 Sudeste 0 1015.3 -1.2 58
2018-08-31 17:00:00 31 12 Sudeste 27 Sudeste 0 1015.4 -1.3 46
2018-08-31 16:00:00 30.1 14 Este 28 Este 0 1016 -1.3 51
2018-08-31 15:00:00 30 14 Este 25 Este 0 1016.5 -0.9 49
2018-08-31 14:00:00 29.6 11 Este 22 Nordeste 0 1016.7 -0.4 55
2018-08-31 13:00:00 29.5 11 Este 21 Nordeste 0 1017.3 0.7 54
2018-08-31 12:00:00 29 9 Nordeste 17 Este 0 1017.4 0.7 60
2018-08-31 11:00:00 29 6 Nordeste 13 Este 0 1017.1 0.7 60
2018-08-31 10:00:00 26.7 4 Sudoeste 12 Oeste 0 1016.6 0.7 65
2018-08-31 09:00:00 23.7 9 Oeste 13 Oeste 0 1016.7 0.7 75
2018-08-31 08:00:00 21.5 8 Oeste 14 Oeste 0 1016.4 0.4 81
2018-08-31 07:00:00 21.1 8 Oeste 13 Oeste 0 1015.9 -0.3 86
2018-08-31 06:00:00 22.1 7 Oeste 15 Oeste 0 1016 -0.5 91
2018-08-31 05:00:00 21.7 5 Sudoeste 10 Oeste 0 1016 -0.8 91
2018-08-31 04:00:00 21.7 4 Oeste 8 Oeste 0 1016.2 -0.9 90
2018-08-31 03:00:00 21.8 4 Sudoeste 9 Oeste 0 1016.5 -0.8 89
2018-08-31 02:00:00 22.7 6 Sudoeste 8 Sudoeste 0 1016.8 -0.5 88
2018-08-31 01:00:00 22.8 5 Sudoeste 8 Sudoeste 0 1017.1 0.4 87
2018-08-31 00:00:00 23 3 Sudoeste 7 Sudoeste 0 1017.3 0.9 87
2018-08-30 23:00:00 23.6 3 Sudoeste 6 Sudoeste 0 1017.3 1.3 83
2018-08-30 22:00:00 24.6 5 Sudoeste 6 Sudoeste 0 1016.7 0.3 80
2018-08-30 21:00:00 25.7 3 Sur 12 Sudeste 0 1016.4 -0.1 72
2018-08-30 20:00:00 27.4 5 Sudeste 20 Este 0 1016 -0.7 64
2018-08-30 19:00:00 29 5 Sudeste 21 Este 0 1016.4 -0.7 61
2018-08-30 18:00:00 29.1 8 Este 21 Este 0 1016.5 -1 61
2018-08-30 17:00:00 30.3 10 Este 24 Este 0 1016.7 -1 55
2018-08-30 16:00:00 30.4 9 Nordeste 18 Este 0 1017.1 -0.7 59
2018-08-30 15:00:00 30.4 9 Nordeste 18 Nordeste 0 1017.5 -0.6 58
2018-08-30 14:00:00 29.9 9 Nordeste 18 Este 0 1017.7 -0.1 58
2018-08-30 13:00:00 29.2 11 Nordeste 21 Nordeste 0 1017.8 0.2 60
2018-08-30 12:00:00 30.7 11 Norte 26 Norte 0 1018.1 0.9 56
2018-08-30 11:00:00 30.1 9 Norte 19 Noroeste 0 1017.8 1.2 59
2018-08-30 10:00:00 26.3 6 Oeste 14 Norte 0 1017.6 1.2 74
2018-08-30 09:00:00 23.8 6 Oeste 10 Oeste 0 1017.2 1.3 85
2018-08-30 08:00:00 23 6 Sudoeste 13 Noroeste 0 1016.6 0.1 89
2018-08-30 07:00:00 23.5 7 Noroeste 14 Noroeste 0 1016.4 -0.6 90
2018-08-30 06:00:00 22.9 3 Oeste 10 Sudoeste 0 1015.9 -0.5 89
2018-08-30 05:00:00 23.3 5 Oeste 15 Noroeste 0 1016.5 -0.6 86
2018-08-30 04:00:00 24.2 8 Norte 15 Norte 0 1017 0.1 88
2018-08-30 03:00:00 23.5 5 Sudoeste 9 Oeste 0 1016.4 0.1 88
2018-08-30 02:00:00 23.9 0 Calma 10 Oeste 0 1017.1 0.6 86
2018-08-30 01:00:00 24.1 0 Calma 7 Sudoeste 0 1016.9 1.1 86
2018-08-30 00:00:00 24.9 2 Nordeste 6 Este 0 1016.3 0.6 82
2018-08-29 23:00:00 24.6 4 Oeste 6 Sudoeste 0 1016.5 2 83
2018-08-29 22:00:00 25.1 5 Sudoeste 8 Sudoeste 0 1015.8 1.5 80
2018-08-29 21:00:00 26.2 3 Sur 9 Sur 0 1015.7 2 74
2018-08-29 20:00:00 27.2 3 Sudeste 18 Este 0 1014.5 0.8 69
2018-08-29 19:00:00 29.5 9 Sudeste 22 Sudeste 0 1014.3 0.5 60
2018-08-29 18:00:00 30.4 13 Sur 25 Sur 0 1013.7 -0.5 57
2018-08-29 17:00:00 31.2 12 Sur 25 Sudeste 0 1013.7 -0.8 53
2018-08-29 16:00:00 31.9 14 Sur 26 Sudeste 0 1013.8 -1.4 51
2018-08-29 15:00:00 32.4 11 Sur 26 Sur 0 1014.2 -1.2 48
2018-08-29 14:00:00 31.7 13 Sur 27 Sur 0 1014.5 -0.8 48
2018-08-29 13:00:00 31.1 13 Sudeste 27 Sudeste 0 1015.2 0.5 52
2018-08-29 12:00:00 30.8 10 Sur 21 Sur 0 1015.4 0.9 54
2018-08-29 11:00:00 29.7 6 Sudeste 15 Este 0 1015.3 1.2 58
2018-08-29 10:00:00 27.7 3 Sudeste 9 Oeste 0 1014.7 1 69
2018-08-29 09:00:00 23.4 6 Sudoeste 11 Sudoeste 0 1014.5 0.8 81
2018-08-29 08:00:00 20.1 8 Sudoeste 10 Sudoeste 0 1014.1 0.2 90
2018-08-29 07:00:00 20.4 5 Sudoeste 11 Oeste 0 1013.7 -0.8 88
2018-08-29 06:00:00 20.5 5 Sudoeste 6 Sudoeste 0 1013.7 -0.7 88
2018-08-29 05:00:00 21.4 5 Oeste 11 Oeste 0 1013.9 -0.4 81
2018-08-29 04:00:00 21.9 8 Oeste 12 Oeste 0 1014.5 0.3 81
2018-08-29 03:00:00 23 5 Sudoeste 9 Sudoeste 0 1014.4 0.7 83
2018-08-29 02:00:00 24 7 Sudoeste 16 Oeste 0 1014.3 -0.1 77
2018-08-29 01:00:00 24.6 9 Oeste 16 Sudoeste 0 1014.2 0.1 80
2018-08-29 00:00:00 24.7 6 Sur 12 Oeste 0 1013.7 -0.3 77
2018-08-28 23:00:00 25.1 6 Oeste 18 Sudoeste 0 1014.4 1 73
2018-08-28 22:00:00 25.6 7 Sudoeste 21 Sudoeste 0 1014.1 0.5 70
2018-08-28 21:00:00 26 8 Sudoeste 21 Sur 0 1014 0 67
2018-08-28 20:00:00 27.4 9 Sur 26 Sur 0 1013.4 -1.3 61
2018-08-28 19:00:00 29.7 13 Sur 27 Sur 0 1013.6 -1.9 48
2018-08-28 18:00:00 31.3 11 Sur 24 Sur 0 1014 -1.8 45
2018-08-28 17:00:00 31.8 10 Sur 31 Sudeste 0 1014.7 -1.2 45
2018-08-28 16:00:00 31.2 14 Sur 24 Sudeste 0 1015.5 -0.7 44
2018-08-28 15:00:00 29.1 12 Sur 31 Sur 0 1015.8 -0.6 55
2018-08-28 14:00:00 29.6 10 Sudeste 28 Sur 0 1015.9 -0.1 57
2018-08-28 13:00:00 31.7 13 Sudeste 24 Sur 0 1016.2 0.2 45
2018-08-28 12:00:00 29.1 9 Este 18 Este 0 1016.4 0.4 59
2018-08-28 11:00:00 28.7 7 Este 15 Este 0 1016 0.3 63
2018-08-28 10:00:00 27.1 3 Sudoeste 8 Oeste 0 1016 0.5 68
2018-08-28 09:00:00 24 5 Oeste 13 Sudoeste 0 1016 1.2 82
2018-08-28 08:00:00 21.5 6 Sudoeste 10 Sudoeste 0 1015.7 1 92
2018-08-28 07:00:00 22.1 6 Oeste 10 Oeste 0 1015.5 0.4 91
2018-08-28 06:00:00 22.5 2 Sur 11 Oeste 0 1014.8 -0.8 88
2018-08-28 05:00:00 22.5 6 Sudoeste 9 Sudoeste 0 1014.7 -1.6 89
2018-08-28 04:00:00 22.5 5 Sudoeste 8 Sudoeste 0 1015.1 -1.1 88
2018-08-28 03:00:00 22.8 4 Sudoeste 12 Sudoeste 0 1015.6 -0.9 86
2018-08-28 02:00:00 23.6 7 Sudoeste 10 Sudoeste 0 1016.3 0.7 84
2018-08-28 01:00:00 24.3 4 Sudoeste 12 Sur 0 1016.2 1.1 80
2018-08-28 00:00:00 25.3 7 Sudoeste 15 Sudoeste 0 1016.5 1.9 75
2018-08-27 23:00:00 25.7 6 Sur 15 Sudoeste 0 1015.6 1.3 73
2018-08-27 22:00:00 25.8 7 Sur 20 Sur 0 1015.1 0.8 73
2018-08-27 21:00:00 26.2 7 Sur 24 Sur 0 1014.6 0.3 70
2018-08-27 20:00:00 27.2 14 Sur 26 Sur 0 1014.3 -0.3 65
2018-08-27 19:00:00 28.3 12 Sur 26 Sur 0 1014.3 -0.6 63
2018-08-27 18:00:00 29.7 13 Sur 27 Sur 0 1014.3 -1 56
2018-08-27 17:00:00 30.8 14 Sur 30 Sudeste 0 1014.6 -0.6 51
2018-08-27 16:00:00 30.7 14 Sur 29 Sudeste 0 1014.9 -0.6 53
2018-08-27 15:00:00 31 13 Sudeste 33 Sur 0 1015.3 -0.4 52
2018-08-27 14:00:00 31.4 13 Sur 26 Sudeste 0 1015.2 -0.1 49
2018-08-27 13:00:00 31.2 13 Sur 23 Sudeste 0 1015.5 0.5 49
2018-08-27 12:00:00 30 9 Sudeste 23 Este 0 1015.7 1 52
2018-08-27 11:00:00 30.4 8 Sur 16 Este 0 1015.3 1.3 50
2018-08-27 10:00:00 28.7 7 Sudeste 16 Este 0 1015 1.2 63
2018-08-27 09:00:00 25.1 3 Sudoeste 7 Oeste 0 1014.7 1.4 81
2018-08-27 08:00:00 22.6 4 Oeste 9 Sudoeste 0 1014 0.8 89
2018-08-27 07:00:00 22.8 4 Oeste 7 Oeste 0 1013.8 0.5 86
2018-08-27 06:00:00 23.6 5 Sudoeste 8 Oeste 0 1013.3 -0.2 83
2018-08-27 05:00:00 24.7 3 Oeste 9 Sudoeste 0 1013.2 -0.5 78
2018-08-27 04:00:00 25.4 3 Sudoeste 16 Sur 0 1013.3 -0.4 76
2018-08-27 03:00:00 25.6 5 Sur 13 Sur 0 1013.5 -0.2 74
2018-08-27 02:00:00 25.3 2 Sudoeste 7 Sudoeste 0 1013.7 0.3 78
2018-08-27 01:00:00 25.2 5 Sur 15 Sur 0 1013.7 0.8 78
2018-08-27 00:00:00 25.5 7 Sur 19 Sur 0 1013.7 1.3 76
2018-08-26 23:00:00 25.6 8 Sur 25 Sur 0 1013.4 1.1 76
2018-08-26 22:00:00 25.7 9 Sur 29 Sur 0 1012.9 0.6 73
2018-08-26 21:00:00 26 13 Sur 28 Sur 0 1012.4 0 72
2018-08-26 20:00:00 26.9 13 Sur 29 Sudeste 0 1012.3 -0.3 68
2018-08-26 19:00:00 28.5 15 Sudeste 31 Sur 0 1012.3 -0.9 62
2018-08-26 18:00:00 29.1 14 Sudeste 31 Sur 0 1012.4 -1.4 60
2018-08-26 17:00:00 30.4 14 Sur 32 Sudeste 0 1012.6 -1.5 57
2018-08-26 16:00:00 29.4 12 Este 22 Nordeste 0 1013.2 -1.6 57
2018-08-26 15:00:00 30.2 8 Nordeste 18 Nordeste 0 1013.8 -1.2 49
2018-08-26 14:00:00 30.8 8 Este 19 Nordeste 0 1014.1 -0.9 48
2018-08-26 13:00:00 29.8 10 Norte 21 Norte 0 1014.8 0.4 50
2018-08-26 12:00:00 29.1 12 Nordeste 22 Nordeste 0 1015 0.8 53
2018-08-26 11:00:00 27 8 Norte 22 Norte 0 1015 1 62
2018-08-26 10:00:00 26.8 13 Norte 21 Norte 0 1014.4 0.9 65
2018-08-26 09:00:00 24.6 2 Sudoeste 11 Norte 0 1014.2 1.1 79
2018-08-26 08:00:00 22.6 6 Noroeste 10 Noroeste 0 1014 1 87
2018-08-26 07:00:00 22.2 0 Calma 8 Noroeste 0 1013.5 0.5 84
2018-08-26 06:00:00 24.6 4 Norte 17 Norte 0 1013.1 -0.1 73
2018-08-26 05:00:00 24 5 Norte 12 Norte 0 1013 -0.5 79
2018-08-26 04:00:00 24.7 5 Norte 14 Nordeste 0 1013 -0.4 75
2018-08-26 03:00:00 25 6 Nordeste 16 Nordeste 0 1013.2 0.2 77
2018-08-26 02:00:00 23.6 2 Oeste 13 Nordeste 0 1013.5 0.8 83
2018-08-26 01:00:00 25.2 3 Norte 16 Nordeste 0 1013.4 1.4 73
2018-08-26 00:00:00 25.8 8 Nordeste 17 Nordeste 0 1013 1.6 73
2018-08-25 23:00:00 25.9 6 Nordeste 17 Este 0 1012.7 2.1 73
2018-08-25 22:00:00 26.2 5 Nordeste 16 Este 0 1012 1.2 72
2018-08-25 21:00:00 26.5 3 Este 12 Sudeste 0 1011.4 0.4 61
2018-08-25 20:00:00 27.7 8 Sur 22 Sur 0 1010.6 -0.8 57
2018-08-25 19:00:00 29.3 9 Sur 21 Sudeste 0 1010.8 -1 59
2018-08-25 18:00:00 29 10 Sudeste 23 Este 0 1011 -1.2 62
2018-08-25 17:00:00 28.6 11 Este 22 Este 0 1011.4 -1.2 64
2018-08-25 16:00:00 29.5 13 Este 22 Este 0 1011.8 -1.3 61
2018-08-25 15:00:00 30.6 9 Este 21 Este 0 1012.2 -1.2 58
2018-08-25 14:00:00 30.2 8 Este 18 Este 0 1012.6 -0.9 56
2018-08-25 13:00:00 30.8 8 Sudeste 21 Nordeste 0 1013.1 -0.2 54
2018-08-25 12:00:00 31.5 10 Norte 23 Noroeste 0 1013.4 0.1 52
2018-08-25 11:00:00 29.1 12 Noroeste 23 Noroeste 0 1013.5 0.3 59
2018-08-25 10:00:00 28.2 8 Oeste 16 Sudoeste 0 1013.3 0.5 65
2018-08-25 09:00:00 25 4 Oeste 11 Oeste 0 1013.3 0.5 79
2018-08-25 08:00:00 22.5 4 Oeste 9 Oeste 0 1013.2 0.3 89
2018-08-25 07:00:00 21.5 5 Sudoeste 9 Sudoeste 0 1012.8 -0.3 89
2018-08-25 06:00:00 21.8 6 Oeste 10 Oeste 0 1012.8 -0.7 88
2018-08-25 05:00:00 21.9 7 Oeste 11 Oeste 0 1012.9 -0.6 90
2018-08-25 04:00:00 22.3 5 Oeste 9 Oeste 0 1013.1 -0.5 87
2018-08-25 03:00:00 22.4 4 Oeste 9 Sudoeste 0 1013.5 0 84
2018-08-25 02:00:00 23 4 Oeste 9 Sudoeste 0 1013.5 0.2 80
2018-08-25 01:00:00 23.4 2 Noroeste 5 Sur 0 1013.6 0.8 74
2018-08-25 00:00:00 25 2 Oeste 13 Oeste 0 1013.5 1.3 64
2018-08-24 23:00:00 26.3 6 Oeste 13 Oeste 0 1013.3 1.1 60
2018-08-24 22:00:00 26.8 5 Oeste 25 Sudoeste 0 1012.8 0.4 60
2018-08-24 21:00:00 26.9 7 Sudoeste 21 Sudoeste 0 1012.2 -0.6 64
2018-08-24 20:00:00 28.1 10 Sudoeste 26 Sur 0 1012.2 -1.2 56
2018-08-24 19:00:00 30.1 13 Sur 30 Sur 0 1012.4 -1.8 56
2018-08-24 18:00:00 31.6 11 Sur 24 Sudeste 0 1012.8 -1.9 51
2018-08-24 17:00:00 31.2 13 Sudeste 23 Este 0 1013.4 -1.9 47
2018-08-24 16:00:00 30.3 10 Este 20 Este 0 1014.2 -1.4 49
2018-08-24 15:00:00 30.4 10 Nordeste 21 Nordeste 0 1014.7 -1 53
2018-08-24 14:00:00 30.8 16 Norte 27 Norte 0 1015.3 -0.3 48
2018-08-24 13:00:00 31.3 17 Norte 28 Norte 0 1015.6 0.4 52
2018-08-24 12:00:00 31.1 15 Norte 27 Norte 0 1015.7 0.7 52
2018-08-24 11:00:00 30.2 15 Norte 26 Norte 0 1015.6 1 53
2018-08-24 10:00:00 29.3 9 Noroeste 24 Noroeste 0 1015.2 1.2 52
2018-08-24 09:00:00 23.6 6 Sudoeste 12 Oeste 0 1015 1.1 59
2018-08-24 08:00:00 20.2 6 Oeste 12 Oeste 0 1014.6 0.9 71
2018-08-24 07:00:00 19.5 6 Oeste 12 Sudoeste 0 1014 0.1 76
2018-08-24 06:00:00 20 8 Oeste 10 Sudoeste 0 1013.9 0 80
2018-08-24 05:00:00 20.8 8 Sudoeste 13 Oeste 0 1013.7 -0.8 79
2018-08-24 04:00:00 21.1 9 Sudoeste 13 Sudoeste 0 1013.9 -0.7 80
2018-08-24 03:00:00 22.9 6 Oeste 12 Oeste 0 1013.9 -1 75
2018-08-24 02:00:00 22.8 8 Oeste 12 Sudoeste 0 1014.5 -0.6 76
2018-08-24 01:00:00 23.3 8 Sudoeste 11 Sudoeste 0 1014.6 0 81
2018-08-24 00:00:00 25 0 Calma 5 Nordeste 0 1014.9 1.2 74
2018-08-23 23:00:00 25.4 0 Calma 5 Sudoeste 0 1015.1 1.3 68
2018-08-23 22:00:00 26.6 2 Noroeste 10 Oeste 0 1014.6 0.9 57
2018-08-23 21:00:00 28.1 5 Oeste 42 Noroeste 0 1013.7 0.4 46
2018-08-23 20:00:00 28.3 15 Noroeste 32 Noroeste 0 1013.8 0.7 59
2018-08-23 19:00:00 27.9 12 Sudoeste 27 Sudoeste 0 1013.7 0.2 64
2018-08-23 18:00:00 29.9 14 Sudoeste 37 Sudoeste 0 1013.3 -0.9 54
2018-08-23 17:00:00 32.2 14 Sur 33 Sur 0 1013.1 -1.4 47
2018-08-23 16:00:00 32.5 18 Sudoeste 31 Sudoeste 0 1013.5 -1.4 41
2018-08-23 15:00:00 32.9 15 Sur 30 Sur 0 1014.2 -0.9 40
2018-08-23 14:00:00 33.1 14 Sur 30 Sur 0 1014.5 -0.5 37
2018-08-23 13:00:00 33 13 Sudoeste 29 Sudoeste 0 1014.9 0.1 33
2018-08-23 12:00:00 32.9 9 Sudoeste 19 Sur 0 1015.1 0.4 32
2018-08-23 11:00:00 30.6 6 Nordeste 10 Nordeste 0 1015 0.7 38
2018-08-23 10:00:00 28.1 0 Calma 7 Sudoeste 0 1014.8 1 44
2018-08-23 09:00:00 24 5 Sudoeste 11 Sudoeste 0 1014.7 0.8 60
2018-08-23 08:00:00 20.5 9 Oeste 13 Oeste 0 1014.3 0.1 71
2018-08-23 07:00:00 19.5 4 Oeste 8 Oeste 0 1013.8 -0.6 81
2018-08-23 06:00:00 19.4 3 Oeste 10 Sudoeste 0 1013.9 -0.9 80
2018-08-23 05:00:00 20.1 8 Sudoeste 13 Oeste 0 1014.2 -1.1 74
2018-08-23 04:00:00 21 8 Oeste 12 Oeste 0 1014.4 -0.9 68
2018-08-23 03:00:00 21.4 7 Sudoeste 12 Sudoeste 0 1014.8 -0.3 71
2018-08-23 02:00:00 23.4 7 Oeste 10 Oeste 0 1015.3 0.1 69
2018-08-23 01:00:00 23.8 6 Oeste 13 Oeste 0 1015.3 0.5 73
2018-08-23 00:00:00 24.6 8 Sudoeste 14 Sudoeste 0 1015.1 1 78